AKDT,Max TemperatureF,Mean TemperatureF,Min TemperatureF,Max Dew PointF,MeanDew PointF,Min DewpointF,Max Humidity, Mean Humidity, Min Humidity, Max Sea Level PressureIn, Mean Sea Level PressureIn, Min Sea Level PressureIn, Max VisibilityMiles, Mean VisibilityMiles, Min VisibilityMiles, Max Wind SpeedMPH, Mean Wind SpeedMPH, Max Gust SpeedMPH,PrecipitationIn, CloudCover, Events, WindDirDegrees
2012-10-1,39,32,26,33,31,24,96,89,76,30.37,30.15,29.97,10,8,2,8,4,,0.00,7,Snow,271
2012-10-2,42,32,23,30,27,21,96,76,60,30.41,30.34,30.26,10,10,10,12,3,18,0.00,3,,149
2012-10-3,48,41,34,28,26,23,79,56,43,30.30,30.25,30.14,10,10,10,9,4,20,0.00,3,,141
2012-10-4,50,45,42,34,30,23,67,55,42,30.13,30.08,30.05,10,10,10,14,8,28,0.00,4,,152
2012-10-5,53,44,35,43,36,30,90,69,53,30.16,30.11,30.02,10,10,10,14,3,21,0.00,3,Rain,120
2012-10-6,48,40,32,45,40,30,100,90,74,30.25,30.13,29.98,10,8,0,8,3,,0.00,6,Fog-Rain,197
2012-10-7,46,38,30,39,34,30,100,93,76,30.30,30.25,30.16,10,7,0,9,1,,0.00,7,Fog-Rain,114
2012-10-8,42,38,35,40,37,32,100,92,86,30.27,30.14,30.05,10,9,2,8,2,,0.00,8,Rain,296
2012-10-9,41,29,19,30,25,16,92,76,45,30.50,30.39,30.26,10,10,10,8,4,,0.00,4,,303
2012-10-10,33,20,8,15,11,5,92,73,44,30.49,30.41,30.35,10,10,10,5,1,,0.00,0,,227
2012-10-11,28,14,0,9,2,-6,85,72,43,30.36,30.09,29.81,10,10,10,9,1,17,0.00,0,,121
2012-10-12,19,10,1,13,8,-4,85,80,74,29.79,29.63,29.50,10,10,9,0,0,,0.00,7,,-1
2012-10-13,24,20,16,13,10,5,84,66,50,29.56,29.54,29.49,10,10,10,6,1,,0.00,8,,286
2012-10-14,33,26,21,16,13,8,66,55,50,29.47,29.30,29.21,10,10,10,8,2,,0.00,8,,102
2012-10-15,25,23,21,21,19,17,93,85,75,29.25,29.17,29.12,10,2,0,5,1,,0.22,8,Fog-Snow,284
2012-10-16,26,24,21,21,19,17,93,83,74,29.65,29.38,29.20,10,6,0,8,2,,0.08,8,Fog-Snow,283
2012-10-17,26,22,18,20,18,13,93,84,74,29.85,29.78,29.66,10,6,0,5,0,,0.03,8,Fog-Snow,273
2012-10-18,24,22,19,16,15,14,81,75,71,30.01,29.92,29.84,10,10,5,10,5,16,0.00,8,Snow,293
2012-10-19,26,23,21,18,16,15,85,77,71,30.31,30.12,29.98,10,10,7,9,6,,0.00,8,Snow,293
2012-10-20,24,14,0,16,11,-3,88,79,69,30.63,30.48,30.32,10,9,2,6,3,,0.00,6,Snow,355
2012-10-21,16,4,-9,9,0,-14,87,78,70,30.69,30.63,30.56,10,10,5,6,1,,0.00,4,,147
2012-10-22,14,2,-11,4,-10,-17,83,75,64,30.57,30.52,30.47,10,10,10,9,2,,0.00,0,,162
2012-10-23,6,-4,-14,0,-11,-20,92,80,71,30.75,30.60,30.47,10,8,1,4,0,,0.00,5,,0
2012-10-24,6,-4,-15,-1,-15,-21,84,77,70,30.85,30.78,30.67,10,10,10,4,0,,0.00,3,,0
2012-10-25,12,-2,-16,4,-12,-22,80,75,65,30.84,30.72,30.60,10,10,10,5,1,,0.00,2,,188
2012-10-26,12,2,-9,3,-4,-16,83,77,64,30.60,30.53,30.43,10,10,10,4,1,,0.00,4,,160
2012-10-27,14,6,1,6,2,-3,85,77,67,30.43,30.30,30.14,10,10,5,5,0,,0.00,6,Snow,160
2012-10-28,19,10,3,10,8,0,87,77,68,30.21,30.17,30.09,10,8,2,12,2,25,0.00,5,Snow,131
2012-10-29,16,14,12,9,7,5,80,72,64,30.11,29.97,29.89,10,7,0,13,9,23,0.01,7,Snow,129
2012-10-30,15,9,1,9,5,-2,85,77,67,30.04,30.01,29.97,10,8,2,7,2,,0.00,8,Snow,280
2012-10-31,14,8,3,8,5,-2,85,80,77,30.02,29.93,29.88,10,3,0,8,2,,0.03,8,Fog-Snow,277